Time;durP1;ratioP1;P1;durP2;ratioP2;P2;SDS_P1;SDS_P2;PMS_P1;PMS_P2;Temp;Humidity;BMP_temperature;BMP_pressure;BME280_temperature;BME280_humidity;BME280_pressure;Samples;Min_cycle;Max_cycle;Signal;HPM_P1;HPM_P2
2021/12/29 00:00:02;;;;;;;79.77;44.90;;;;;;;2.04;80.00;99712.72;5032095;28;20528;-45
2021/12/29 00:02:30;;;;;;;81.37;43.80;;;;;;;2.05;79.93;99725.72;5031504;28;21053;-43
2021/12/29 00:04:59;;;;;;;72.43;44.37;;;;;;;2.07;80.73;99738.69;5032280;28;20524;-42
2021/12/29 00:07:27;;;;;;;81.77;45.70;;;;;;;2.06;82.24;99723.94;5032097;28;20440;-43
2021/12/29 00:09:55;;;;;;;72.90;43.43;;;;;;;2.03;82.77;99713.75;5032215;28;20474;-42
2021/12/29 00:12:25;;;;;;;76.03;42.87;;;;;;;2.02;82.84;99715.56;5032456;28;20895;-42
2021/12/29 00:14:54;;;;;;;73.40;42.00;;;;;;;2.03;82.57;99724.25;5031865;28;20438;-43
2021/12/29 00:17:21;;;;;;;65.10;42.33;;;;;;;2.03;82.30;99732.94;5025151;28;20445;-41
2021/12/29 00:19:49;;;;;;;69.90;42.27;;;;;;;2.07;81.28;99722.91;5029593;28;20428;-43
2021/12/29 00:22:18;;;;;;;65.53;41.80;;;;;;;2.11;81.56;99738.22;5031532;28;20456;-44
2021/12/29 00:24:46;;;;;;;73.17;43.83;;;;;;;2.16;81.11;99741.16;5031801;28;20431;-46
2021/12/29 00:27:14;;;;;;;67.37;42.50;;;;;;;2.20;80.99;99745.09;5031676;28;20436;-44
2021/12/29 00:29:41;;;;;;;71.37;40.93;;;;;;;2.26;81.84;99754.13;5033457;28;20511;-42
2021/12/29 00:32:09;;;;;;;75.87;41.97;;;;;;;2.30;82.02;99754.63;5037790;28;20460;-42
2021/12/29 00:34:37;;;;;;;66.87;41.80;;;;;;;2.34;82.32;99751.47;5038255;28;20527;-42
2021/12/29 00:37:04;;;;;;;66.13;40.90;;;;;;;2.37;83.03;99748.50;5038383;28;20440;-43
2021/12/29 00:39:33;;;;;;;70.87;43.13;;;;;;;2.39;83.91;99745.72;5038533;28;20546;-44
2021/12/29 00:42:01;;;;;;;62.10;39.80;;;;;;;2.41;84.43;99749.00;5037970;28;20808;-42
2021/12/29 00:44:30;;;;;;;70.90;43.90;;;;;;;2.44;84.49;99760.00;5038207;28;20526;-41
2021/12/29 00:46:58;;;;;;;69.00;41.40;;;;;;;2.45;85.57;99766.09;5038327;28;20531;-41
2021/12/29 00:49:31;;;;;;;64.33;43.10;;;;;;;2.48;85.36;99771.03;5038293;28;20452;-41
2021/12/29 00:51:59;;;;;;;60.17;37.80;;;;;;;2.50;85.79;99772.50;5037451;28;20938;-42
2021/12/29 00:54:27;;;;;;;63.67;38.70;;;;;;;2.49;86.50;99777.91;5038574;28;20516;-41
2021/12/29 00:56:56;;;;;;;66.73;39.17;;;;;;;2.31;90.46;99787.81;5040992;28;20519;-41
2021/12/29 00:59:24;;;;;;;61.60;40.33;;;;;;;2.27;90.70;99789.16;5038842;28;21188;-41
2021/12/29 01:01:53;;;;;;;58.27;37.67;;;;;;;2.22;90.13;99790.47;5037635;28;20434;-41
2021/12/29 01:04:21;;;;;;;60.20;36.50;;;;;;;2.21;89.90;99795.91;5037830;28;20530;-43
2021/12/29 01:06:49;;;;;;;64.40;40.13;;;;;;;2.16;90.29;99803.44;5038050;28;20425;-41
2021/12/29 01:09:17;;;;;;;67.17;39.03;;;;;;;2.14;89.88;99810.69;5037887;28;20457;-42
2021/12/29 01:11:45;;;;;;;64.83;40.60;;;;;;;2.13;89.54;99812.50;5038162;28;20535;-43
2021/12/29 01:14:21;;;;;;;66.20;41.77;;;;;;;2.16;88.87;99811.34;5037219;28;20480;-41
2021/12/29 01:16:49;;;;;;;66.67;38.50;;;;;;;2.15;88.91;99823.66;5035743;28;20571;-41
2021/12/29 01:19:19;;;;;;;62.63;36.60;;;;;;;2.15;88.77;99817.63;5030761;28;20460;-43
2021/12/29 01:21:50;;;;;;;62.03;38.20;;;;;;;2.11;89.32;99816.28;5037884;28;20429;-41
2021/12/29 01:24:21;;;;;;;59.90;38.73;;;;;;;2.12;88.64;99816.09;5037564;28;20947;-41
2021/12/29 01:26:49;;;;;;;68.00;41.40;;;;;;;2.14;88.87;99824.69;5037843;28;21033;-41
2021/12/29 01:29:19;;;;;;;57.03;37.87;;;;;;;2.17;88.27;99836.66;5037926;28;20452;-42
2021/12/29 01:31:47;;;;;;;72.37;40.87;;;;;;;2.20;88.00;99836.34;5037747;28;20427;-42
2021/12/29 01:34:15;;;;;;;67.17;39.47;;;;;;;2.23;88.11;99841.28;5037540;28;20482;-41
2021/12/29 01:36:43;;;;;;;72.63;38.57;;;;;;;2.25;87.96;99852.44;5037895;28;20447;-41
2021/12/29 01:39:14;;;;;;;63.23;38.47;;;;;;;2.25;88.87;99855.06;5037771;28;20456;-42
2021/12/29 01:41:43;;;;;;;59.90;36.73;;;;;;;2.26;88.31;99854.09;5035296;28;20812;-43
2021/12/29 01:44:13;;;;;;;66.70;42.43;;;;;;;2.29;88.36;99866.09;5033917;28;20506;-42
2021/12/29 01:46:44;;;;;;;62.43;38.93;;;;;;;2.31;88.22;99864.09;5034780;28;20436;-43
2021/12/29 01:49:12;;;;;;;73.13;39.07;;;;;;;2.31;88.98;99878.09;5034719;28;20516;-43
2021/12/29 01:51:48;;;;;;;68.23;41.17;;;;;;;2.29;89.65;99873.97;5034571;28;21017;-41
2021/12/29 01:54:23;;;;;;;67.57;40.47;;;;;;;2.25;89.90;99881.38;5030888;28;20483;-43
2021/12/29 01:56:53;;;;;;;61.53;39.70;;;;;;;2.25;89.87;99881.38;5034261;28;20523;-42
2021/12/29 01:59:22;;;;;;;71.53;40.50;;;;;;;2.23;89.54;99873.66;5034291;28;20826;-42
2021/12/29 02:01:51;;;;;;;63.77;40.20;;;;;;;2.26;89.57;99864.63;5034110;28;20793;-41
2021/12/29 02:04:20;;;;;;;66.50;40.77;;;;;;;2.23;89.79;99859.69;5035185;28;20835;-42
2021/12/29 02:06:49;;;;;;;75.50;40.23;;;;;;;2.23;89.50;99864.94;5034496;28;20507;-41
2021/12/29 02:09:16;;;;;;;70.17;39.07;;;;;;;2.20;90.07;99883.69;5034137;28;20548;-42
2021/12/29 02:11:45;;;;;;;65.73;39.50;;;;;;;2.18;89.75;99889.09;5034325;28;20436;-42
2021/12/29 02:14:13;;;;;;;62.80;38.33;;;;;;;2.21;89.38;99894.03;5033509;28;20472;-42
2021/12/29 02:16:42;;;;;;;72.57;39.60;;;;;;;2.23;89.13;99889.44;5032950;28;20443;-43
2021/12/29 02:19:13;;;;;;;69.03;43.00;;;;;;;2.24;88.92;99898.97;5026058;28;20813;-44
2021/12/29 02:21:53;;;;;;;77.00;43.50;;;;;;;2.22;89.30;99890.41;5034168;28;20429;-42
2021/12/29 02:24:33;;;;;;;79.80;41.37;;;;;;;2.23;88.96;99893.88;5034018;28;20947;-41
2021/12/29 02:27:02;;;;;;;59.63;37.93;;;;;;;2.23;89.14;99899.13;5034273;28;20433;-42
2021/12/29 02:29:30;;;;;;;68.10;38.70;;;;;;;2.21;89.41;99903.75;5033936;28;20547;-41
2021/12/29 02:31:58;;;;;;;66.20;40.07;;;;;;;2.21;89.38;99909.00;5033393;28;20428;-42
2021/12/29 02:34:25;;;;;;;66.83;39.70;;;;;;;2.12;89.91;99908.16;5033408;28;20479;-43
2021/12/29 02:36:57;;;;;;;66.87;40.90;;;;;;;2.12;89.23;99917.88;5033906;28;20487;-41
2021/12/29 02:39:26;;;;;;;58.07;38.67;;;;;;;2.15;88.07;99920.97;5033735;28;20467;-42
2021/12/29 02:41:54;;;;;;;66.50;39.90;;;;;;;2.17;87.98;99928.72;5033184;28;20520;-41
2021/12/29 02:44:27;;;;;;;64.73;39.50;;;;;;;2.19;87.89;99937.28;5033395;28;20432;-45
2021/12/29 02:46:56;;;;;;;73.00;42.00;;;;;;;2.21;88.06;99932.69;5033465;28;20873;-43
2021/12/29 02:49:26;;;;;;;63.73;40.20;;;;;;;2.19;88.15;99934.63;5033617;28;20463;-41
2021/12/29 02:51:55;;;;;;;68.43;41.00;;;;;;;2.23;87.54;99933.34;5032927;28;20421;-41
2021/12/29 02:54:23;;;;;;;79.00;43.23;;;;;;;2.23;87.62;99936.78;5032790;28;20480;-46
2021/12/29 02:56:54;;;;;;;63.33;38.80;;;;;;;2.27;87.45;99942.53;5033313;28;20432;-44
2021/12/29 02:59:22;;;;;;;70.03;40.33;;;;;;;2.27;88.21;99947.78;5033220;28;20519;-43
2021/12/29 03:01:51;;;;;;;60.87;38.40;;;;;;;2.27;88.41;99947.00;5033002;28;20432;-43
2021/12/29 03:04:19;;;;;;;70.03;42.17;;;;;;;2.27;89.02;99955.69;5033160;28;20440;-44
2021/12/29 03:06:47;;;;;;;59.00;38.43;;;;;;;2.28;88.66;99959.13;5033148;28;20436;-44
2021/12/29 03:09:17;;;;;;;71.13;40.00;;;;;;;2.28;88.44;99959.97;5033077;28;20850;-44
2021/12/29 03:11:46;;;;;;;67.73;42.00;;;;;;;2.30;88.36;99960.63;5033180;28;20433;-41
2021/12/29 03:14:14;;;;;;;60.33;38.73;;;;;;;2.28;89.19;99962.59;5032239;28;20504;-42
2021/12/29 03:16:42;;;;;;;63.90;40.33;;;;;;;2.23;89.30;99975.44;5031619;28;20491;-44
2021/12/29 03:19:11;;;;;;;61.20;39.43;;;;;;;2.19;89.17;99974.91;5024996;28;20497;-43
2021/12/29 03:21:39;;;;;;;59.67;38.97;;;;;;;2.17;88.82;99978.69;5032678;28;20428;-44
2021/12/29 03:24:08;;;;;;;65.93;37.97;;;;;;;2.21;87.92;99985.28;5031990;28;20457;-42
2021/12/29 03:26:37;;;;;;;72.10;39.67;;;;;;;2.24;87.58;99987.56;5032885;28;20437;-43
2021/12/29 03:29:06;;;;;;;63.73;42.27;;;;;;;2.24;88.00;99984.94;5032682;28;20460;-44
2021/12/29 03:31:38;;;;;;;74.53;42.37;;;;;;;2.24;87.99;99985.78;5032694;28;20443;-42
2021/12/29 03:34:06;;;;;;;64.43;43.20;;;;;;;2.25;88.09;99983.97;5031642;28;20487;-45
2021/12/29 03:36:34;;;;;;;68.90;41.47;;;;;;;2.26;88.57;99982.16;5034096;28;20424;-44
2021/12/29 03:39:02;;;;;;;69.30;40.70;;;;;;;2.23;88.73;99981.50;5034401;28;20537;-42
2021/12/29 03:41:30;;;;;;;64.90;41.90;;;;;;;2.21;88.72;99986.09;5032645;28;20459;-41
2021/12/29 03:44:01;;;;;;;72.20;41.10;;;;;;;2.20;88.46;99989.72;5031713;28;20462;-41
2021/12/29 03:46:28;;;;;;;61.63;40.77;;;;;;;2.20;87.79;99987.09;5032560;28;20438;-43
2021/12/29 03:48:56;;;;;;;73.30;44.63;;;;;;;2.21;87.68;99996.63;5032268;28;20543;-43
2021/12/29 03:51:24;;;;;;;71.67;42.60;;;;;;;2.25;87.55;100012.91;5032266;28;20429;-43
2021/12/29 03:53:52;;;;;;;67.20;40.80;;;;;;;2.24;87.46;100016.50;5031882;28;20480;-41
2021/12/29 03:56:19;;;;;;;67.63;42.97;;;;;;;2.25;87.68;100018.16;5033227;28;20436;-42
2021/12/29 03:58:47;;;;;;;56.53;38.10;;;;;;;2.29;87.05;100019.50;5032084;28;20456;-43
2021/12/29 04:01:18;;;;;;;65.07;40.67;;;;;;;2.31;87.09;100021.97;5032202;28;20444;-41
2021/12/29 04:03:46;;;;;;;65.20;40.97;;;;;;;2.27;88.15;100026.72;5031466;28;20488;-43
2021/12/29 04:06:16;;;;;;;68.70;40.17;;;;;;;2.24;88.82;100041.00;5031725;28;20538;-41
2021/12/29 04:08:44;;;;;;;73.47;40.17;;;;;;;2.26;87.82;100043.50;5031909;28;20556;-44
2021/12/29 04:11:14;;;;;;;73.47;42.97;;;;;;;2.24;88.63;100037.56;5016669;28;20471;-42
2021/12/29 04:13:43;;;;;;;66.83;42.57;;;;;;;2.26;87.54;100040.88;5023020;28;20559;-42
2021/12/29 04:16:16;;;;;;;61.70;39.77;;;;;;;2.28;87.40;100048.59;5030787;28;20523;-41
2021/12/29 04:19:05;;;;;;;62.17;38.87;;;;;;;2.29;88.04;100050.25;5023616;28;20878;-41
2021/12/29 04:21:34;;;;;;;65.07;38.90;;;;;;;2.29;88.01;100050.25;5031719;28;20429;-41
2021/12/29 04:24:02;;;;;;;67.20;41.60;;;;;;;2.31;87.67;100050.91;5031184;28;20468;-41
2021/12/29 04:26:32;;;;;;;65.90;42.30;;;;;;;2.32;87.93;100056.00;5031843;28;20428;-41
2021/12/29 04:29:00;;;;;;;78.73;45.00;;;;;;;2.31;88.29;100058.78;5032012;28;20466;-41
2021/12/29 04:31:28;;;;;;;70.40;41.90;;;;;;;2.33;87.78;100073.44;5032080;28;20432;-43
2021/12/29 04:33:57;;;;;;;66.10;40.00;;;;;;;2.35;88.01;100081.19;5031023;28;20910;-43
2021/12/29 04:36:24;;;;;;;70.00;44.93;;;;;;;2.34;88.46;100087.41;5031801;28;20440;-41
2021/12/29 04:38:54;;;;;;;77.83;45.47;;;;;;;2.33;88.69;100094.47;5031582;28;20539;-42
2021/12/29 04:41:22;;;;;;;61.90;40.60;;;;;;;2.36;87.90;100091.53;5031711;28;20440;-43
2021/12/29 04:43:50;;;;;;;63.73;40.27;;;;;;;2.36;88.48;100102.06;5031083;28;20468;-43
2021/12/29 04:46:19;;;;;;;62.83;39.53;;;;;;;2.38;88.69;100113.25;5032000;28;20520;-43
2021/12/29 04:48:51;;;;;;;75.23;43.17;;;;;;;2.35;88.94;100120.66;5031749;28;20460;-42
2021/12/29 04:51:25;;;;;;;72.57;42.23;;;;;;;2.30;89.60;100129.00;5031804;28;20518;-41
2021/12/29 04:53:53;;;;;;;64.77;40.63;;;;;;;2.29;89.22;100137.06;5030951;28;20470;-43
2021/12/29 04:56:21;;;;;;;66.03;41.53;;;;;;;2.28;89.72;100152.00;5029896;28;20472;-42
2021/12/29 04:58:48;;;;;;;77.33;41.17;;;;;;;2.27;89.36;100147.72;5031711;28;20821;-41
2021/12/29 05:01:16;;;;;;;66.00;40.67;;;;;;;2.27;89.61;100157.44;5031693;28;20449;-43
2021/12/29 05:03:45;;;;;;;63.10;40.93;;;;;;;2.28;89.23;100167.81;5030906;28;20495;-44
2021/12/29 05:08:59;;;;;;;67.67;39.70;;;;;;;2.28;89.34;100186.22;5031633;28;20449;-44
2021/12/29 05:11:27;;;;;;;79.23;44.07;;;;;;;2.29;89.59;100184.41;5031011;28;20463;-42
2021/12/29 05:13:55;;;;;;;71.07;43.50;;;;;;;2.29;89.64;100177.34;5030734;28;20464;-44
2021/12/29 05:16:27;;;;;;;61.87;39.73;;;;;;;2.30;89.55;100178.19;5030305;28;20475;-43
2021/12/29 05:18:56;;;;;;;82.57;45.53;;;;;;;2.30;89.19;100173.72;5026200;28;20460;-42
2021/12/29 05:21:25;;;;;;;76.77;42.43;;;;;;;2.30;89.59;100176.34;5009335;28;20557;-43
2021/12/29 05:23:53;;;;;;;70.87;45.03;;;;;;;2.27;90.18;100176.66;4992765;28;20564;-43
2021/12/29 05:26:22;;;;;;;68.97;41.47;;;;;;;2.27;90.05;100178.50;4994357;28;20438;-44
2021/12/29 05:28:50;;;;;;;68.73;40.93;;;;;;;2.21;90.17;100178.13;4994219;28;20497;-42
2021/12/29 05:31:18;;;;;;;75.60;43.03;;;;;;;2.19;89.91;100177.47;4994259;28;20898;-45
2021/12/29 05:33:46;;;;;;;73.43;42.03;;;;;;;2.23;89.02;100177.97;4993038;28;20862;-41
2021/12/29 05:36:13;;;;;;;85.93;42.37;;;;;;;2.24;88.67;100184.88;4993975;28;20488;-44
2021/12/29 05:38:41;;;;;;;79.50;41.70;;;;;;;2.26;88.82;100188.19;4994233;28;20461;-47
2021/12/29 05:41:09;;;;;;;88.23;44.03;;;;;;;2.27;88.64;100189.81;4994229;28;20433;-44
2021/12/29 05:43:38;;;;;;;73.97;42.10;;;;;;;2.29;88.75;100181.78;4993119;28;20458;-44
2021/12/29 05:46:05;;;;;;;69.53;42.27;;;;;;;2.29;88.65;100187.88;4994088;28;20440;-42
2021/12/29 05:48:33;;;;;;;87.77;46.50;;;;;;;2.34;88.16;100187.41;4994653;28;20470;-45
2021/12/29 05:51:01;;;;;;;85.93;47.33;;;;;;;2.37;88.14;100180.00;4994274;28;20465;-43
2021/12/29 05:53:29;;;;;;;83.57;42.17;;;;;;;2.36;88.79;100182.81;4993448;28;20461;-44
2021/12/29 05:55:57;;;;;;;92.03;47.60;;;;;;;2.38;88.68;100176.41;4994160;28;20484;-46
2021/12/29 05:58:25;;;;;;;105.43;45.97;;;;;;;2.42;87.89;100182.19;4993969;28;20470;-44
2021/12/29 06:00:54;;;;;;;101.20;49.17;;;;;;;2.44;87.98;100180.22;4994077;28;20529;-41
2021/12/29 06:03:21;;;;;;;122.63;49.97;;;;;;;2.46;88.23;100178.25;4993396;28;20528;-42
2021/12/29 06:05:51;;;;;;;129.63;53.03;;;;;;;2.47;88.02;100182.53;4993264;28;20517;-47
2021/12/29 06:08:19;;;;;;;118.13;52.67;;;;;;;2.47;88.23;100180.72;4993336;28;20457;-44
2021/12/29 06:10:47;;;;;;;182.63;61.30;;;;;;;2.48;88.08;100176.28;4993184;28;20442;-42
2021/12/29 06:13:15;;;;;;;149.13;56.10;;;;;;;2.45;88.83;100180.03;4992482;28;20844;-44
2021/12/29 06:15:42;;;;;;;159.80;55.30;;;;;;;2.46;88.55;100181.69;4994366;28;20474;-41
2021/12/29 06:18:12;;;;;;;140.63;53.60;;;;;;;2.48;88.06;100192.09;5029456;28;20499;-42
2021/12/29 06:20:40;;;;;;;188.60;60.23;;;;;;;2.48;87.50;100192.09;5013049;28;20441;-42
2021/12/29 06:23:12;;;;;;;139.40;53.10;;;;;;;2.49;87.58;100189.28;5012009;28;20974;-42
2021/12/29 06:25:40;;;;;;;177.03;55.53;;;;;;;2.48;87.52;100192.88;5012319;28;20465;-43
2021/12/29 06:28:08;;;;;;;184.93;77.93;;;;;;;2.47;87.72;100193.06;5011920;28;20457;-43
2021/12/29 06:30:35;;;;;;;211.00;82.77;;;;;;;2.46;87.50;100201.94;5012012;28;20447;-41
2021/12/29 06:33:03;;;;;;;397.73;110.10;;;;;;;2.45;87.51;100203.72;5023159;28;20971;-42
2021/12/29 06:35:33;;;;;;;319.47;86.50;;;;;;;2.44;87.34;100217.06;5031728;28;20486;-41
2021/12/29 06:38:00;;;;;;;301.80;76.83;;;;;;;2.44;86.97;100225.78;5032035;28;20527;-43
2021/12/29 06:40:29;;;;;;;246.20;72.93;;;;;;;2.44;87.13;100241.56;5031925;28;20455;-41
2021/12/29 06:42:57;;;;;;;236.87;68.80;;;;;;;2.42;87.48;100246.16;5031540;28;20490;-43
2021/12/29 06:45:26;;;;;;;367.23;84.63;;;;;;;2.42;87.17;100250.59;5024724;28;20469;-42
2021/12/29 06:47:55;;;;;;;286.27;75.37;;;;;;;2.40;87.49;100257.81;5000213;28;20999;-41
2021/12/29 06:50:22;;;;;;;573.03;115.80;;;;;;;2.39;87.16;100251.72;5023627;28;21013;-42
2021/12/29 06:52:51;;;;;;;374.80;90.73;;;;;;;2.39;86.53;100256.97;5031109;28;20547;-42
2021/12/29 06:55:19;;;;;;;297.53;80.60;;;;;;;2.40;86.65;100261.28;5031587;28;20444;-43
2021/12/29 06:57:51;;;;;;;265.60;66.53;;;;;;;2.39;86.37;100262.25;5018183;28;20454;-41
2021/12/29 07:00:19;;;;;;;378.20;85.90;;;;;;;2.39;85.98;100267.50;4992950;28;20432;-45
2021/12/29 07:02:47;;;;;;;351.17;84.60;;;;;;;2.40;85.89;100276.22;4999385;28;20466;-44
2021/12/29 07:05:15;;;;;;;285.70;74.10;;;;;;;2.39;85.78;100275.41;5001479;28;20428;-43
2021/12/29 07:07:44;;;;;;;214.60;71.13;;;;;;;2.38;85.70;100279.03;5003169;28;20485;-46
2021/12/29 07:10:13;;;;;;;241.20;72.60;;;;;;;2.38;85.82;100283.47;5005424;28;20535;-42
2021/12/29 07:12:40;;;;;;;304.30;79.87;;;;;;;2.38;85.53;100286.09;4998311;28;20470;-46
2021/12/29 07:15:09;;;;;;;233.63;68.17;;;;;;;2.38;85.59;100292.19;5001741;28;20455;-42
2021/12/29 07:17:36;;;;;;;282.70;77.50;;;;;;;2.38;85.32;100300.09;5000968;28;20561;-42
2021/12/29 07:20:05;;;;;;;374.87;95.30;;;;;;;2.37;85.68;100303.69;5004742;28;20432;-44
2021/12/29 07:22:33;;;;;;;266.60;75.37;;;;;;;2.37;85.43;100305.47;5000206;28;20484;-42
2021/12/29 07:25:01;;;;;;;229.27;69.40;;;;;;;2.37;85.35;100305.47;5001945;28;20441;-46
2021/12/29 07:27:30;;;;;;;557.17;114.97;;;;;;;2.36;85.06;100317.00;4995175;28;20430;-42
2021/12/29 07:29:58;;;;;;;329.97;62.53;;;;;;;2.33;86.06;100319.94;5004277;28;20545;-43
2021/12/29 07:32:27;;;;;;;257.80;62.13;;;;;;;2.30;86.45;100323.69;4996429;28;20576;-42
2021/12/29 07:34:55;;;;;;;154.70;59.03;;;;;;;2.34;84.79;100329.47;4999161;28;20473;-41
2021/12/29 07:37:23;;;;;;;291.77;69.43;;;;;;;2.35;83.91;100333.78;4994347;28;20762;-42
2021/12/29 07:39:50;;;;;;;255.70;71.87;;;;;;;2.34;84.73;100340.00;5000174;28;20520;-43
2021/12/29 07:42:18;;;;;;;316.27;79.80;;;;;;;2.35;84.53;100346.94;4995547;28;20466;-40
2021/12/29 07:44:49;;;;;;;499.70;104.80;;;;;;;2.33;85.06;100351.53;4997598;28;20815;-41
2021/12/29 07:47:17;;;;;;;216.13;64.17;;;;;;;2.35;84.78;100362.72;5007919;28;20432;-41
2021/12/29 07:49:45;;;;;;;306.57;75.53;;;;;;;2.36;84.74;100361.75;5022342;28;20428;-41
2021/12/29 07:52:12;;;;;;;322.27;81.73;;;;;;;2.37;83.99;100374.72;5030596;28;20463;-42
2021/12/29 07:54:40;;;;;;;351.63;85.90;;;;;;;2.38;83.98;100365.88;5030507;28;20536;-42
2021/12/29 07:57:07;;;;;;;582.77;126.90;;;;;;;2.39;84.30;100377.22;5030382;28;20484;-42
2021/12/29 07:59:35;;;;;;;262.93;74.90;;;;;;;2.41;83.62;100381.34;5029251;28;20531;-41
2021/12/29 08:02:04;;;;;;;474.97;101.00;;;;;;;2.42;83.64;100384.81;5030305;28;20450;-41
2021/12/29 08:04:32;;;;;;;370.83;91.73;;;;;;;2.44;83.55;100394.22;5030003;28;20513;-42
2021/12/29 08:07:00;;;;;;;362.17;95.10;;;;;;;2.45;83.37;100400.31;5029964;28;20945;-43
2021/12/29 08:09:27;;;;;;;281.47;71.30;;;;;;;2.46;83.30;100400.13;5031378;28;20494;-42
2021/12/29 08:11:55;;;;;;;346.10;83.03;;;;;;;2.47;83.99;100388.63;5001964;28;20441;-42
2021/12/29 08:14:23;;;;;;;366.97;85.23;;;;;;;2.48;83.74;100392.09;4999163;28;20453;-41
2021/12/29 08:16:51;;;;;;;306.93;77.80;;;;;;;2.48;83.95;100392.91;4999087;28;21030;-41
2021/12/29 08:19:20;;;;;;;289.67;81.90;;;;;;;2.49;83.81;100396.38;4996313;28;20469;-41
2021/12/29 08:21:48;;;;;;;260.40;74.97;;;;;;;2.50;83.87;100392.75;4996786;28;20438;-41
2021/12/29 08:24:19;;;;;;;188.07;64.63;;;;;;;2.51;83.67;100387.34;4996313;28;20548;-42
2021/12/29 08:26:47;;;;;;;253.93;76.10;;;;;;;2.52;83.82;100383.72;4997063;28;20529;-41
2021/12/29 08:29:14;;;;;;;309.80;80.60;;;;;;;2.53;84.07;100385.41;4997973;28;20471;-45
2021/12/29 08:31:42;;;;;;;251.40;80.43;;;;;;;2.55;83.91;100382.59;5000277;28;20988;-46
2021/12/29 08:34:10;;;;;;;285.13;77.07;;;;;;;2.56;84.01;100381.63;4998066;28;20464;-42
2021/12/29 08:36:39;;;;;;;214.03;64.80;;;;;;;2.61;82.66;100382.81;5007326;28;20527;-44
2021/12/29 08:39:07;;;;;;;174.50;58.03;;;;;;;2.70;81.01;100376.63;5006759;28;20461;-43
2021/12/29 08:41:35;;;;;;;259.87;67.50;;;;;;;2.76;81.88;100398.88;5010060;28;20434;-44
2021/12/29 08:44:03;;;;;;;392.97;82.20;;;;;;;2.80;82.35;100387.06;5010304;28;20461;-44
2021/12/29 08:46:31;;;;;;;420.67;95.07;;;;;;;2.83;83.35;100380.66;5009753;28;20785;-42
2021/12/29 08:48:59;;;;;;;262.60;65.90;;;;;;;2.89;83.06;100387.94;5009792;28;20472;-43
2021/12/29 08:51:27;;;;;;;372.10;89.83;;;;;;;2.95;82.85;100389.94;5011542;28;20433;-46
2021/12/29 08:53:56;;;;;;;175.33;56.83;;;;;;;3.01;84.02;100391.94;5012193;28;20472;-44
2021/12/29 08:56:24;;;;;;;357.67;87.27;;;;;;;3.11;82.76;100379.47;5013324;28;20429;-43
2021/12/29 08:58:53;;;;;;;261.33;75.57;;;;;;;3.19;83.03;100392.69;5012964;28;20464;-43
2021/12/29 09:01:21;;;;;;;241.87;67.17;;;;;;;3.29;83.30;100403.94;5013111;28;20447;-44
2021/12/29 09:03:50;;;;;;;261.17;71.30;;;;;;;3.40;83.69;100408.94;5011261;28;20467;-44
2021/12/29 09:06:18;;;;;;;291.83;68.00;;;;;;;3.41;86.23;100407.09;5010384;28;20437;-43
2021/12/29 09:08:46;;;;;;;518.57;115.23;;;;;;;3.45;87.55;100413.72;5011803;28;20471;-44
2021/12/29 09:11:16;;;;;;;262.80;67.03;;;;;;;3.40;88.97;100411.56;5012587;28;20441;-43
2021/12/29 09:13:44;;;;;;;269.20;66.10;;;;;;;3.38;89.36;100407.41;5010862;28;20475;-44
2021/12/29 09:16:11;;;;;;;546.33;100.17;;;;;;;3.35;90.45;100408.56;5012439;28;20439;-43
2021/12/29 09:18:39;;;;;;;355.17;67.43;;;;;;;3.25;91.44;100398.19;5012525;28;21188;-42
2021/12/29 09:21:13;;;;;;;635.73;113.57;;;;;;;3.20;92.44;100395.16;5011720;28;20441;-43
2021/12/29 09:23:42;;;;;;;482.60;98.53;;;;;;;3.33;91.11;100405.28;5011051;28;20465;-44
2021/12/29 09:26:11;;;;;;;311.97;72.00;;;;;;;3.38;90.88;100405.63;5011838;28;20473;-43
2021/12/29 09:28:41;;;;;;;169.70;59.17;;;;;;;3.52;89.66;100409.47;5011609;28;20834;-43
2021/12/29 09:31:09;;;;;;;169.43;58.83;;;;;;;3.61;89.75;100403.25;5011505;28;21080;-41
2021/12/29 09:33:38;;;;;;;250.73;64.30;;;;;;;3.57;91.58;100408.00;5011106;28;20822;-43
2021/12/29 09:36:06;;;;;;;202.37;59.87;;;;;;;3.55;91.85;100412.63;5011997;28;20677;-44
2021/12/29 09:38:35;;;;;;;436.00;78.43;;;;;;;3.59;91.52;100419.22;5011351;28;20486;-44
2021/12/29 09:41:04;;;;;;;129.10;52.33;;;;;;;3.62;91.52;100416.25;5011899;28;21018;-43
2021/12/29 09:43:32;;;;;;;321.67;65.37;;;;;;;3.72;91.92;100418.78;5010939;28;20469;-42
2021/12/29 09:46:01;;;;;;;201.97;58.07;;;;;;;3.73;92.00;100433.63;5013129;28;20951;-42
2021/12/29 09:48:29;;;;;;;331.30;70.80;;;;;;;3.70;92.77;100429.47;5014909;28;20898;-42
2021/12/29 09:50:56;;;;;;;396.33;63.77;;;;;;;3.70;92.83;100426.03;5013898;28;20945;-43
2021/12/29 09:53:24;;;;;;;803.93;155.37;;;;;;;3.71;93.41;100431.13;5014125;28;20465;-43
2021/12/29 09:55:52;;;;;;;431.40;92.13;;;;;;;3.72;93.09;100429.31;5014898;28;20524;-44
2021/12/29 09:58:21;;;;;;;546.00;118.43;;;;;;;3.68;93.61;100426.16;5014642;28;21058;-43
2021/12/29 10:00:56;;;;;;;517.93;132.07;;;;;;;3.70;93.38;100415.47;5014802;28;20439;-43
2021/12/29 10:03:28;;;;;;;348.47;84.13;;;;;;;3.72;93.30;100424.88;5013189;28;20472;-44
2021/12/29 10:05:57;;;;;;;389.47;92.13;;;;;;;3.77;93.38;100429.66;5014752;28;20516;-43
2021/12/29 10:08:28;;;;;;;286.27;77.80;;;;;;;3.86;93.07;100444.50;5014418;28;20544;-45
2021/12/29 10:10:59;;;;;;;117.77;54.23;;;;;;;3.96;92.31;100439.09;5015062;28;20528;-43
2021/12/29 10:13:30;;;;;;;226.87;68.03;;;;;;;4.04;92.56;100444.41;5014019;28;20544;-42
2021/12/29 10:16:02;;;;;;;267.40;69.37;;;;;;;4.12;92.19;100447.06;5016632;28;20532;-46
2021/12/29 10:18:32;;;;;;;267.40;68.60;;;;;;;4.14;93.35;100445.91;5025717;28;20473;-43
2021/12/29 10:21:04;;;;;;;360.13;85.30;;;;;;;4.18;93.38;100441.94;5034216;28;20547;-47
2021/12/29 10:23:34;;;;;;;393.53;82.70;;;;;;;4.19;93.67;100438.31;5033758;28;20460;-44
2021/12/29 10:26:06;;;;;;;208.30;67.37;;;;;;;4.22;93.81;100451.19;5034312;28;20435;-44
2021/12/29 10:28:35;;;;;;;107.53;52.33;;;;;;;4.24;93.75;100454.50;5034335;28;20990;-42
2021/12/29 10:31:05;;;;;;;259.77;80.13;;;;;;;4.26;94.01;100456.97;5034113;28;20432;-47
2021/12/29 10:33:38;;;;;;;188.10;69.90;;;;;;;4.24;94.17;100462.41;5031557;28;20520;-42
2021/12/29 10:36:18;;;;;;;253.60;78.30;;;;;;;4.22;93.92;100476.75;5034259;28;20734;-42
2021/12/29 10:38:51;;;;;;;237.80;79.33;;;;;;;4.18;93.80;100481.53;5033722;28;20486;-42
2021/12/29 10:41:18;;;;;;;276.97;67.53;;;;;;;4.10;94.11;100480.69;5033933;28;20524;-44
2021/12/29 10:43:57;;;;;;;134.70;53.57;;;;;;;4.07;93.88;100488.94;5033083;28;20471;-45
2021/12/29 10:46:27;;;;;;;378.80;86.37;;;;;;;4.05;93.73;100499.66;5033690;28;20514;-44
2021/12/29 10:48:57;;;;;;;302.97;65.20;;;;;;;4.04;93.76;100499.81;5033776;28;20530;-47
2021/12/29 10:51:31;;;;;;;153.37;55.10;;;;;;;4.04;93.86;100491.88;5033967;28;20471;-45
2021/12/29 10:54:12;;;;;;;175.43;59.70;;;;;;;4.09;93.82;100497.53;5032733;28;20985;-41
2021/12/29 10:56:41;;;;;;;237.60;70.93;;;;;;;4.08;93.71;100490.59;5033439;28;20428;-43
2021/12/29 10:59:18;;;;;;;145.77;54.77;;;;;;;4.10;94.05;100485.97;5033484;28;20480;-44
2021/12/29 11:01:47;;;;;;;141.47;55.57;;;;;;;4.13;94.02;100483.84;5033523;28;20468;-42
2021/12/29 11:04:17;;;;;;;134.50;50.93;;;;;;;4.13;94.14;100481.19;5033134;28;20899;-47
2021/12/29 11:06:51;;;;;;;137.20;53.70;;;;;;;4.12;93.79;100474.25;5033273;28;20442;-44
2021/12/29 11:09:28;;;;;;;109.00;49.00;;;;;;;4.14;93.64;100464.38;5033175;28;20452;-43
2021/12/29 11:11:56;;;;;;;115.20;51.13;;;;;;;4.13;93.93;100460.09;5033143;28;20438;-44
2021/12/29 11:14:27;;;;;;;136.10;53.97;;;;;;;4.12;93.98;100452.34;5033198;28;20527;-44
2021/12/29 11:17:03;;;;;;;131.23;57.00;;;;;;;4.12;93.93;100468.97;5029972;28;20452;-41
2021/12/29 11:19:32;;;;;;;82.07;42.07;;;;;;;4.15;93.62;100471.28;5027692;28;20475;-42
2021/12/29 11:22:12;;;;;;;92.60;47.70;;;;;;;4.18;94.04;100465.69;5032669;28;20867;-44
2021/12/29 11:24:42;;;;;;;122.67;58.53;;;;;;;4.19;94.07;100469.16;5033362;28;20429;-44
2021/12/29 11:27:12;;;;;;;99.67;49.37;;;;;;;4.19;94.05;100470.00;5033118;28;20438;-45